sensor_id;sensor_type;location;lat;lon;timestamp;temperature;humidity
2647;DHT22;1333;50.958;6.770;2022-08-19T00:00:16;19.70;99.90
2647;DHT22;1333;50.958;6.770;2022-08-19T00:02:42;19.70;99.90
2647;DHT22;1333;50.958;6.770;2022-08-19T00:05:09;19.60;99.90
2647;DHT22;1333;50.958;6.770;2022-08-19T00:07:35;19.60;99.90
2647;DHT22;1333;50.958;6.770;2022-08-19T00:10:01;19.60;99.90
2647;DHT22;1333;50.958;6.770;2022-08-19T00:12:27;19.60;99.90
2647;DHT22;1333;50.958;6.770;2022-08-19T00:14:52;19.60;99.90
2647;DHT22;1333;50.958;6.770;2022-08-19T00:17:19;19.60;99.90
2647;DHT22;1333;50.958;6.770;2022-08-19T00:19:45;19.60;99.90
2647;DHT22;1333;50.958;6.770;2022-08-19T00:22:10;19.60;99.90
2647;DHT22;1333;50.958;6.770;2022-08-19T00:24:36;19.50;99.90
2647;DHT22;1333;50.958;6.770;2022-08-19T00:27:04;19.50;99.90
2647;DHT22;1333;50.958;6.770;2022-08-19T00:29:30;19.50;99.90
2647;DHT22;1333;50.958;6.770;2022-08-19T00:31:56;19.40;99.90
2647;DHT22;1333;50.958;6.770;2022-08-19T00:34:24;19.40;99.90
2647;DHT22;1333;50.958;6.770;2022-08-19T00:36:51;19.40;99.90
2647;DHT22;1333;50.958;6.770;2022-08-19T00:39:17;19.40;99.90
2647;DHT22;1333;50.958;6.770;2022-08-19T00:41:44;19.30;99.90
2647;DHT22;1333;50.958;6.770;2022-08-19T00:44:25;19.30;99.90
2647;DHT22;1333;50.958;6.770;2022-08-19T00:46:52;19.30;99.90
2647;DHT22;1333;50.958;6.770;2022-08-19T00:51:54;19.10;99.90
2647;DHT22;1333;50.958;6.770;2022-08-19T00:54:21;19.10;99.90
2647;DHT22;1333;50.958;6.770;2022-08-19T00:56:47;19.00;99.90
2647;DHT22;1333;50.958;6.770;2022-08-19T00:59:15;19.00;99.90
2647;DHT22;1333;50.958;6.770;2022-08-19T01:01:43;19.00;99.90
2647;DHT22;1333;50.958;6.770;2022-08-19T01:04:09;19.00;99.90
2647;DHT22;1333;50.958;6.770;2022-08-19T01:06:37;18.90;99.90
2647;DHT22;1333;50.958;6.770;2022-08-19T01:09:04;18.90;99.90
2647;DHT22;1333;50.958;6.770;2022-08-19T01:11:31;18.90;99.90
2647;DHT22;1333;50.958;6.770;2022-08-19T01:13:58;18.80;99.90
2647;DHT22;1333;50.958;6.770;2022-08-19T01:16:27;18.80;99.90
2647;DHT22;1333;50.958;6.770;2022-08-19T01:18:53;18.70;99.90
2647;DHT22;1333;50.958;6.770;2022-08-19T01:21:47;18.70;99.90
2647;DHT22;1333;50.958;6.770;2022-08-19T01:24:15;18.70;99.90
2647;DHT22;1333;50.958;6.770;2022-08-19T01:26:43;18.60;99.90
2647;DHT22;1333;50.958;6.770;2022-08-19T01:29:10;18.60;99.90
2647;DHT22;1333;50.958;6.770;2022-08-19T01:31:36;18.60;99.90
2647;DHT22;1333;50.958;6.770;2022-08-19T01:34:02;18.50;99.90
2647;DHT22;1333;50.958;6.770;2022-08-19T01:36:31;18.50;99.90
2647;DHT22;1333;50.958;6.770;2022-08-19T01:38:58;18.50;99.90
2647;DHT22;1333;50.958;6.770;2022-08-19T01:41:24;18.50;99.90
2647;DHT22;1333;50.958;6.770;2022-08-19T01:43:51;18.50;99.90
2647;DHT22;1333;50.958;6.770;2022-08-19T01:46:17;18.50;99.90
2647;DHT22;1333;50.958;6.770;2022-08-19T01:48:44;18.50;99.90
2647;DHT22;1333;50.958;6.770;2022-08-19T01:51:11;18.40;99.90
2647;DHT22;1333;50.958;6.770;2022-08-19T01:53:37;18.40;99.90
2647;DHT22;1333;50.958;6.770;2022-08-19T01:56:04;18.40;99.90
2647;DHT22;1333;50.958;6.770;2022-08-19T01:58:38;18.40;99.90
2647;DHT22;1333;50.958;6.770;2022-08-19T02:01:06;18.40;99.90
2647;DHT22;1333;50.958;6.770;2022-08-19T02:03:31;18.40;99.90
2647;DHT22;1333;50.958;6.770;2022-08-19T02:06:02;18.40;99.90
2647;DHT22;1333;50.958;6.770;2022-08-19T02:08:32;18.40;99.90
2647;DHT22;1333;50.958;6.770;2022-08-19T02:10:58;18.40;99.90
2647;DHT22;1333;50.958;6.770;2022-08-19T02:13:25;18.30;99.90
2647;DHT22;1333;50.958;6.770;2022-08-19T02:15:51;18.40;99.90
2647;DHT22;1333;50.958;6.770;2022-08-19T02:18:17;18.30;99.90
2647;DHT22;1333;50.958;6.770;2022-08-19T02:20:44;18.30;99.90
2647;DHT22;1333;50.958;6.770;2022-08-19T02:23:11;18.20;99.90
2647;DHT22;1333;50.958;6.770;2022-08-19T02:25:37;18.20;99.90
2647;DHT22;1333;50.958;6.770;2022-08-19T02:28:04;18.20;99.90
2647;DHT22;1333;50.958;6.770;2022-08-19T02:30:30;18.20;99.90
2647;DHT22;1333;50.958;6.770;2022-08-19T02:32:55;18.20;99.90
2647;DHT22;1333;50.958;6.770;2022-08-19T02:35:21;18.20;99.90
2647;DHT22;1333;50.958;6.770;2022-08-19T02:37:47;18.20;99.90
2647;DHT22;1333;50.958;6.770;2022-08-19T02:40:32;18.20;99.90
2647;DHT22;1333;50.958;6.770;2022-08-19T02:43:00;18.20;99.90
2647;DHT22;1333;50.958;6.770;2022-08-19T02:45:26;18.10;99.90
2647;DHT22;1333;50.958;6.770;2022-08-19T02:47:52;18.10;99.90
2647;DHT22;1333;50.958;6.770;2022-08-19T02:50:18;18.10;99.90
2647;DHT22;1333;50.958;6.770;2022-08-19T02:52:43;18.10;99.90
2647;DHT22;1333;50.958;6.770;2022-08-19T02:55:10;18.10;99.90
2647;DHT22;1333;50.958;6.770;2022-08-19T02:57:35;18.00;99.90
2647;DHT22;1333;50.958;6.770;2022-08-19T03:00:04;18.00;99.90
2647;DHT22;1333;50.958;6.770;2022-08-19T03:02:30;18.00;99.90
2647;DHT22;1333;50.958;6.770;2022-08-19T03:04:57;18.00;99.90
2647;DHT22;1333;50.958;6.770;2022-08-19T03:07:22;18.00;99.90
2647;DHT22;1333;50.958;6.770;2022-08-19T03:09:48;18.00;99.90
2647;DHT22;1333;50.958;6.770;2022-08-19T03:12:13;18.10;99.90
2647;DHT22;1333;50.958;6.770;2022-08-19T03:14:39;18.10;99.90
2647;DHT22;1333;50.958;6.770;2022-08-19T03:17:06;18.20;99.90
2647;DHT22;1333;50.958;6.770;2022-08-19T03:19:32;18.20;99.90
2647;DHT22;1333;50.958;6.770;2022-08-19T03:21:58;18.30;99.90
2647;DHT22;1333;50.958;6.770;2022-08-19T03:24:24;18.20;99.90
2647;DHT22;1333;50.958;6.770;2022-08-19T03:26:54;18.30;99.90
2647;DHT22;1333;50.958;6.770;2022-08-19T03:29:25;18.30;99.90
2647;DHT22;1333;50.958;6.770;2022-08-19T03:31:51;18.30;99.90
2647;DHT22;1333;50.958;6.770;2022-08-19T03:34:24;18.30;99.90
2647;DHT22;1333;50.958;6.770;2022-08-19T03:36:55;18.30;99.90
2647;DHT22;1333;50.958;6.770;2022-08-19T03:39:22;18.30;99.90
2647;DHT22;1333;50.958;6.770;2022-08-19T03:41:49;18.30;99.90
2647;DHT22;1333;50.958;6.770;2022-08-19T03:44:18;18.30;99.90
2647;DHT22;1333;50.958;6.770;2022-08-19T03:46:46;18.20;99.90
2647;DHT22;1333;50.958;6.770;2022-08-19T03:49:13;18.30;99.90
2647;DHT22;1333;50.958;6.770;2022-08-19T03:51:39;18.20;99.90
2647;DHT22;1333;50.958;6.770;2022-08-19T03:54:10;18.30;99.90
2647;DHT22;1333;50.958;6.770;2022-08-19T03:56:37;18.30;99.90
2647;DHT22;1333;50.958;6.770;2022-08-19T03:59:05;18.30;99.90
2647;DHT22;1333;50.958;6.770;2022-08-19T04:01:31;18.30;99.90
2647;DHT22;1333;50.958;6.770;2022-08-19T04:03:59;18.30;99.90
2647;DHT22;1333;50.958;6.770;2022-08-19T04:06:28;18.30;99.90
2647;DHT22;1333;50.958;6.770;2022-08-19T04:08:56;18.30;99.90
2647;DHT22;1333;50.958;6.770;2022-08-19T04:11:25;18.30;99.90
2647;DHT22;1333;50.958;6.770;2022-08-19T04:13:52;18.30;99.90
2647;DHT22;1333;50.958;6.770;2022-08-19T04:16:19;18.30;99.90
2647;DHT22;1333;50.958;6.770;2022-08-19T04:18:45;18.30;99.90
2647;DHT22;1333;50.958;6.770;2022-08-19T04:21:19;18.30;99.90
2647;DHT22;1333;50.958;6.770;2022-08-19T04:23:46;18.30;99.90
2647;DHT22;1333;50.958;6.770;2022-08-19T04:26:23;18.30;99.90
2647;DHT22;1333;50.958;6.770;2022-08-19T04:28:49;18.30;99.90
2647;DHT22;1333;50.958;6.770;2022-08-19T04:31:21;18.30;99.90
2647;DHT22;1333;50.958;6.770;2022-08-19T04:33:47;18.20;99.90
2647;DHT22;1333;50.958;6.770;2022-08-19T04:36:17;18.20;99.90
2647;DHT22;1333;50.958;6.770;2022-08-19T04:38:46;18.20;99.90
2647;DHT22;1333;50.958;6.770;2022-08-19T04:41:12;18.20;99.90
2647;DHT22;1333;50.958;6.770;2022-08-19T04:43:56;18.20;99.90
2647;DHT22;1333;50.958;6.770;2022-08-19T04:46:22;18.30;99.90
2647;DHT22;1333;50.958;6.770;2022-08-19T04:48:47;18.30;99.90
2647;DHT22;1333;50.958;6.770;2022-08-19T04:51:13;18.30;99.90
2647;DHT22;1333;50.958;6.770;2022-08-19T04:53:40;18.40;99.90
2647;DHT22;1333;50.958;6.770;2022-08-19T04:56:12;18.40;99.90
2647;DHT22;1333;50.958;6.770;2022-08-19T04:58:40;18.40;99.90
2647;DHT22;1333;50.958;6.770;2022-08-19T05:01:08;18.50;99.90
2647;DHT22;1333;50.958;6.770;2022-08-19T05:03:34;18.50;99.90
2647;DHT22;1333;50.958;6.770;2022-08-19T05:06:08;18.50;99.90
2647;DHT22;1333;50.958;6.770;2022-08-19T05:08:37;18.60;99.90
2647;DHT22;1333;50.958;6.770;2022-08-19T05:13:34;18.70;99.90
2647;DHT22;1333;50.958;6.770;2022-08-19T05:16:00;18.70;99.90
2647;DHT22;1333;50.958;6.770;2022-08-19T05:18:26;18.80;99.90
2647;DHT22;1333;50.958;6.770;2022-08-19T05:21:13;18.90;99.90
2647;DHT22;1333;50.958;6.770;2022-08-19T05:23:57;18.90;99.90
2647;DHT22;1333;50.958;6.770;2022-08-19T05:26:24;19.00;99.90
2647;DHT22;1333;50.958;6.770;2022-08-19T05:28:52;19.10;99.90
2647;DHT22;1333;50.958;6.770;2022-08-19T05:31:18;19.10;99.90
2647;DHT22;1333;50.958;6.770;2022-08-19T05:33:44;19.20;99.90
2647;DHT22;1333;50.958;6.770;2022-08-19T05:36:09;19.20;99.90
2647;DHT22;1333;50.958;6.770;2022-08-19T05:38:35;19.30;99.90
2647;DHT22;1333;50.958;6.770;2022-08-19T05:41:08;19.40;99.90
2647;DHT22;1333;50.958;6.770;2022-08-19T05:43:34;19.50;99.90
2647;DHT22;1333;50.958;6.770;2022-08-19T05:46:00;19.70;99.90
2647;DHT22;1333;50.958;6.770;2022-08-19T05:48:25;19.80;99.90
2647;DHT22;1333;50.958;6.770;2022-08-19T05:50:51;19.90;99.90
2647;DHT22;1333;50.958;6.770;2022-08-19T05:53:17;19.90;99.90
2647;DHT22;1333;50.958;6.770;2022-08-19T05:55:43;20.00;99.90
2647;DHT22;1333;50.958;6.770;2022-08-19T05:58:09;20.10;99.90
2647;DHT22;1333;50.958;6.770;2022-08-19T06:00:36;20.20;99.90
2647;DHT22;1333;50.958;6.770;2022-08-19T06:03:03;20.30;99.90
2647;DHT22;1333;50.958;6.770;2022-08-19T06:05:32;20.40;99.90
2647;DHT22;1333;50.958;6.770;2022-08-19T06:07:58;20.50;99.90
2647;DHT22;1333;50.958;6.770;2022-08-19T06:10:26;20.60;99.90
2647;DHT22;1333;50.958;6.770;2022-08-19T06:12:53;20.80;99.90
2647;DHT22;1333;50.958;6.770;2022-08-19T06:15:18;21.00;99.90
2647;DHT22;1333;50.958;6.770;2022-08-19T06:17:44;21.10;99.90
2647;DHT22;1333;50.958;6.770;2022-08-19T06:20:12;21.50;99.90
2647;DHT22;1333;50.958;6.770;2022-08-19T06:22:40;21.90;99.90
2647;DHT22;1333;50.958;6.770;2022-08-19T06:25:06;22.40;99.90
2647;DHT22;1333;50.958;6.770;2022-08-19T06:27:33;22.80;99.90
2647;DHT22;1333;50.958;6.770;2022-08-19T06:29:59;23.10;99.90
2647;DHT22;1333;50.958;6.770;2022-08-19T06:32:25;23.30;99.90
2647;DHT22;1333;50.958;6.770;2022-08-19T06:34:50;23.40;99.90
2647;DHT22;1333;50.958;6.770;2022-08-19T06:37:16;23.50;99.90
2647;DHT22;1333;50.958;6.770;2022-08-19T06:39:43;23.70;99.90
2647;DHT22;1333;50.958;6.770;2022-08-19T06:42:09;23.60;99.90
2647;DHT22;1333;50.958;6.770;2022-08-19T06:44:40;23.60;99.90
2647;DHT22;1333;50.958;6.770;2022-08-19T06:47:08;23.40;99.90
2647;DHT22;1333;50.958;6.770;2022-08-19T06:49:35;23.40;99.90
2647;DHT22;1333;50.958;6.770;2022-08-19T06:52:01;23.20;99.90
2647;DHT22;1333;50.958;6.770;2022-08-19T06:54:28;23.10;99.90
2647;DHT22;1333;50.958;6.770;2022-08-19T06:56:55;23.00;99.90
2647;DHT22;1333;50.958;6.770;2022-08-19T06:59:23;22.90;99.90
2647;DHT22;1333;50.958;6.770;2022-08-19T07:01:53;22.90;99.90
2647;DHT22;1333;50.958;6.770;2022-08-19T07:04:22;22.80;99.90
2647;DHT22;1333;50.958;6.770;2022-08-19T07:06:49;22.90;99.90
2647;DHT22;1333;50.958;6.770;2022-08-19T07:09:16;22.90;99.90
2647;DHT22;1333;50.958;6.770;2022-08-19T07:11:47;22.80;99.90
2647;DHT22;1333;50.958;6.770;2022-08-19T07:14:15;22.90;99.90
2647;DHT22;1333;50.958;6.770;2022-08-19T07:16:43;22.90;99.90
2647;DHT22;1333;50.958;6.770;2022-08-19T07:19:11;22.90;99.90
2647;DHT22;1333;50.958;6.770;2022-08-19T07:21:37;22.80;99.90
2647;DHT22;1333;50.958;6.770;2022-08-19T07:24:03;22.90;99.90
2647;DHT22;1333;50.958;6.770;2022-08-19T07:26:33;22.90;99.90
2647;DHT22;1333;50.958;6.770;2022-08-19T07:29:02;23.00;99.90
2647;DHT22;1333;50.958;6.770;2022-08-19T07:31:28;23.00;99.90
2647;DHT22;1333;50.958;6.770;2022-08-19T07:33:56;23.10;99.90
2647;DHT22;1333;50.958;6.770;2022-08-19T07:36:26;23.10;99.90
2647;DHT22;1333;50.958;6.770;2022-08-19T07:38:56;23.30;99.90
2647;DHT22;1333;50.958;6.770;2022-08-19T07:41:23;23.50;99.90
2647;DHT22;1333;50.958;6.770;2022-08-19T07:43:49;23.90;99.90
2647;DHT22;1333;50.958;6.770;2022-08-19T07:46:15;24.30;99.90
2647;DHT22;1333;50.958;6.770;2022-08-19T07:48:43;24.80;99.90
2647;DHT22;1333;50.958;6.770;2022-08-19T07:51:11;25.30;99.90
2647;DHT22;1333;50.958;6.770;2022-08-19T07:53:38;25.60;99.90
2647;DHT22;1333;50.958;6.770;2022-08-19T07:56:04;25.70;99.90
2647;DHT22;1333;50.958;6.770;2022-08-19T07:58:32;25.70;99.90
2647;DHT22;1333;50.958;6.770;2022-08-19T08:00:59;25.80;99.90
2647;DHT22;1333;50.958;6.770;2022-08-19T08:03:25;26.10;99.90
2647;DHT22;1333;50.958;6.770;2022-08-19T08:06:11;26.60;99.90
2647;DHT22;1333;50.958;6.770;2022-08-19T08:08:55;26.90;99.90
2647;DHT22;1333;50.958;6.770;2022-08-19T08:11:41;27.20;99.90
2647;DHT22;1333;50.958;6.770;2022-08-19T08:14:08;27.60;99.90
2647;DHT22;1333;50.958;6.770;2022-08-19T08:16:36;27.80;99.90
2647;DHT22;1333;50.958;6.770;2022-08-19T08:19:05;28.00;99.90
2647;DHT22;1333;50.958;6.770;2022-08-19T08:21:31;28.30;99.90
2647;DHT22;1333;50.958;6.770;2022-08-19T08:23:57;28.70;99.90
2647;DHT22;1333;50.958;6.770;2022-08-19T08:26:23;29.00;99.90
2647;DHT22;1333;50.958;6.770;2022-08-19T08:28:50;29.50;99.90
2647;DHT22;1333;50.958;6.770;2022-08-19T08:31:16;29.80;99.90
2647;DHT22;1333;50.958;6.770;2022-08-19T08:33:43;30.30;99.90
2647;DHT22;1333;50.958;6.770;2022-08-19T08:36:10;30.80;99.90
2647;DHT22;1333;50.958;6.770;2022-08-19T08:38:36;31.30;99.90
2647;DHT22;1333;50.958;6.770;2022-08-19T08:43:52;32.00;96.80
2647;DHT22;1333;50.958;6.770;2022-08-19T08:46:23;32.10;94.10
2647;DHT22;1333;50.958;6.770;2022-08-19T08:49:02;31.90;93.20
2647;DHT22;1333;50.958;6.770;2022-08-19T08:51:37;31.50;94.40
2647;DHT22;1333;50.958;6.770;2022-08-19T08:54:09;31.20;94.50
2647;DHT22;1333;50.958;6.770;2022-08-19T08:56:38;30.70;95.20
2647;DHT22;1333;50.958;6.770;2022-08-19T08:59:15;30.50;95.90
2647;DHT22;1333;50.958;6.770;2022-08-19T09:01:42;30.40;96.60
2647;DHT22;1333;50.958;6.770;2022-08-19T09:04:10;30.40;96.90
2647;DHT22;1333;50.958;6.770;2022-08-19T09:09:34;30.50;95.70
2647;DHT22;1333;50.958;6.770;2022-08-19T09:12:27;30.50;96.70
2647;DHT22;1333;50.958;6.770;2022-08-19T09:15:08;30.80;95.70
2647;DHT22;1333;50.958;6.770;2022-08-19T09:17:35;31.20;94.60
2647;DHT22;1333;50.958;6.770;2022-08-19T09:20:02;31.90;93.00
2647;DHT22;1333;50.958;6.770;2022-08-19T09:22:32;32.60;91.60
2647;DHT22;1333;50.958;6.770;2022-08-19T09:24:58;33.40;88.40
2647;DHT22;1333;50.958;6.770;2022-08-19T09:27:28;34.40;81.00
2647;DHT22;1333;50.958;6.770;2022-08-19T09:29:54;35.00;74.40
2647;DHT22;1333;50.958;6.770;2022-08-19T09:32:21;35.60;70.50
2647;DHT22;1333;50.958;6.770;2022-08-19T09:34:47;35.90;67.00
2647;DHT22;1333;50.958;6.770;2022-08-19T09:37:13;36.20;66.20
2647;DHT22;1333;50.958;6.770;2022-08-19T09:39:39;36.50;60.80
2647;DHT22;1333;50.958;6.770;2022-08-19T09:42:09;36.70;57.90
2647;DHT22;1333;50.958;6.770;2022-08-19T09:44:38;36.80;58.80
2647;DHT22;1333;50.958;6.770;2022-08-19T09:47:04;37.50;56.60
2647;DHT22;1333;50.958;6.770;2022-08-19T09:49:30;38.30;55.40
2647;DHT22;1333;50.958;6.770;2022-08-19T09:51:56;38.70;52.70
2647;DHT22;1333;50.958;6.770;2022-08-19T09:54:23;39.00;52.50
2647;DHT22;1333;50.958;6.770;2022-08-19T09:56:49;39.30;52.10
2647;DHT22;1333;50.958;6.770;2022-08-19T09:59:15;40.30;51.90
2647;DHT22;1333;50.958;6.770;2022-08-19T10:01:41;40.90;47.90
2647;DHT22;1333;50.958;6.770;2022-08-19T10:04:06;41.20;47.10
2647;DHT22;1333;50.958;6.770;2022-08-19T10:06:37;41.30;45.70
2647;DHT22;1333;50.958;6.770;2022-08-19T10:09:04;41.30;47.00
2647;DHT22;1333;50.958;6.770;2022-08-19T10:11:32;41.80;46.40
2647;DHT22;1333;50.958;6.770;2022-08-19T10:13:58;42.30;44.20
2647;DHT22;1333;50.958;6.770;2022-08-19T10:16:24;42.20;43.50
2647;DHT22;1333;50.958;6.770;2022-08-19T10:18:52;41.60;45.00
2647;DHT22;1333;50.958;6.770;2022-08-19T10:21:21;41.40;44.10
2647;DHT22;1333;50.958;6.770;2022-08-19T10:23:50;40.80;45.30
2647;DHT22;1333;50.958;6.770;2022-08-19T10:26:24;40.30;45.70
2647;DHT22;1333;50.958;6.770;2022-08-19T10:28:50;40.50;47.80
2647;DHT22;1333;50.958;6.770;2022-08-19T10:31:19;41.30;46.00
2647;DHT22;1333;50.958;6.770;2022-08-19T10:33:46;41.90;44.50
2647;DHT22;1333;50.958;6.770;2022-08-19T10:36:19;42.70;44.20
2647;DHT22;1333;50.958;6.770;2022-08-19T10:38:48;43.50;43.00
2647;DHT22;1333;50.958;6.770;2022-08-19T10:41:18;43.90;41.00
2647;DHT22;1333;50.958;6.770;2022-08-19T10:43:45;44.40;40.90
2647;DHT22;1333;50.958;6.770;2022-08-19T10:46:13;44.30;40.60
2647;DHT22;1333;50.958;6.770;2022-08-19T10:48:40;44.30;40.00
2647;DHT22;1333;50.958;6.770;2022-08-19T10:51:06;44.50;40.30
2647;DHT22;1333;50.958;6.770;2022-08-19T10:53:51;44.30;39.50
2647;DHT22;1333;50.958;6.770;2022-08-19T10:56:17;44.30;39.50
2647;DHT22;1333;50.958;6.770;2022-08-19T10:59:01;44.70;38.80
2647;DHT22;1333;50.958;6.770;2022-08-19T11:01:29;44.80;39.40
2647;DHT22;1333;50.958;6.770;2022-08-19T11:03:56;45.40;38.30
2647;DHT22;1333;50.958;6.770;2022-08-19T11:06:22;45.90;38.50
2647;DHT22;1333;50.958;6.770;2022-08-19T11:08:48;46.40;37.50
2647;DHT22;1333;50.958;6.770;2022-08-19T11:11:14;46.30;37.10
2647;DHT22;1333;50.958;6.770;2022-08-19T11:13:41;46.10;37.40
2647;DHT22;1333;50.958;6.770;2022-08-19T11:16:13;46.40;35.80
2647;DHT22;1333;50.958;6.770;2022-08-19T11:18:46;46.10;36.00
2647;DHT22;1333;50.958;6.770;2022-08-19T11:23:48;46.50;36.70
2647;DHT22;1333;50.958;6.770;2022-08-19T11:26:15;47.10;36.00
2647;DHT22;1333;50.958;6.770;2022-08-19T11:28:41;47.80;35.20
2647;DHT22;1333;50.958;6.770;2022-08-19T11:31:15;47.90;34.90
2647;DHT22;1333;50.958;6.770;2022-08-19T11:33:41;48.00;34.50
2647;DHT22;1333;50.958;6.770;2022-08-19T11:36:07;48.30;33.50
2647;DHT22;1333;50.958;6.770;2022-08-19T11:38:33;48.40;33.50
2647;DHT22;1333;50.958;6.770;2022-08-19T11:41:06;48.30;33.00
2647;DHT22;1333;50.958;6.770;2022-08-19T11:43:35;47.60;34.40
2647;DHT22;1333;50.958;6.770;2022-08-19T11:46:09;47.30;34.20
2647;DHT22;1333;50.958;6.770;2022-08-19T11:48:36;47.60;34.50
2647;DHT22;1333;50.958;6.770;2022-08-19T11:51:06;47.70;34.50
2647;DHT22;1333;50.958;6.770;2022-08-19T11:53:33;48.00;33.50
2647;DHT22;1333;50.958;6.770;2022-08-19T11:55:59;48.50;32.90
2647;DHT22;1333;50.958;6.770;2022-08-19T11:58:25;48.10;32.20
2647;DHT22;1333;50.958;6.770;2022-08-19T12:00:51;48.20;33.20
2647;DHT22;1333;50.958;6.770;2022-08-19T12:03:17;48.80;33.30
2647;DHT22;1333;50.958;6.770;2022-08-19T12:05:43;49.30;32.80
2647;DHT22;1333;50.958;6.770;2022-08-19T12:08:09;48.90;32.80
2647;DHT22;1333;50.958;6.770;2022-08-19T12:10:35;48.80;32.90
2647;DHT22;1333;50.958;6.770;2022-08-19T12:13:00;47.80;32.60
2647;DHT22;1333;50.958;6.770;2022-08-19T12:15:27;46.80;33.30
2647;DHT22;1333;50.958;6.770;2022-08-19T12:17:54;47.40;33.70
2647;DHT22;1333;50.958;6.770;2022-08-19T12:20:22;48.00;33.20
2647;DHT22;1333;50.958;6.770;2022-08-19T12:22:48;47.80;33.00
2647;DHT22;1333;50.958;6.770;2022-08-19T12:25:14;47.90;32.70
2647;DHT22;1333;50.958;6.770;2022-08-19T12:27:40;48.10;32.80
2647;DHT22;1333;50.958;6.770;2022-08-19T12:30:08;48.70;32.40
2647;DHT22;1333;50.958;6.770;2022-08-19T12:32:34;48.90;30.10
2647;DHT22;1333;50.958;6.770;2022-08-19T12:35:00;49.30;32.30
2647;DHT22;1333;50.958;6.770;2022-08-19T12:37:26;49.70;30.90
2647;DHT22;1333;50.958;6.770;2022-08-19T12:39:52;50.00;31.50
2647;DHT22;1333;50.958;6.770;2022-08-19T12:42:17;50.50;30.40
2647;DHT22;1333;50.958;6.770;2022-08-19T12:44:43;51.10;29.70
2647;DHT22;1333;50.958;6.770;2022-08-19T12:47:11;51.60;29.90
2647;DHT22;1333;50.958;6.770;2022-08-19T12:49:38;51.50;28.70
2647;DHT22;1333;50.958;6.770;2022-08-19T12:52:05;51.20;28.80
2647;DHT22;1333;50.958;6.770;2022-08-19T12:54:31;51.00;28.80
2647;DHT22;1333;50.958;6.770;2022-08-19T12:56:57;50.50;28.70
2647;DHT22;1333;50.958;6.770;2022-08-19T12:59:23;50.40;29.30
2647;DHT22;1333;50.958;6.770;2022-08-19T13:01:49;50.10;28.10
2647;DHT22;1333;50.958;6.770;2022-08-19T13:04:14;49.80;29.30
2647;DHT22;1333;50.958;6.770;2022-08-19T13:06:41;49.20;29.00
2647;DHT22;1333;50.958;6.770;2022-08-19T13:09:08;48.80;28.50
2647;DHT22;1333;50.958;6.770;2022-08-19T13:11:33;48.60;29.00
2647;DHT22;1333;50.958;6.770;2022-08-19T13:14:00;48.00;29.70
2647;DHT22;1333;50.958;6.770;2022-08-19T13:16:26;47.80;29.60
2647;DHT22;1333;50.958;6.770;2022-08-19T13:18:53;47.90;29.70
2647;DHT22;1333;50.958;6.770;2022-08-19T13:21:21;47.90;30.30
2647;DHT22;1333;50.958;6.770;2022-08-19T13:23:48;47.80;30.60
2647;DHT22;1333;50.958;6.770;2022-08-19T13:26:15;48.10;30.20
2647;DHT22;1333;50.958;6.770;2022-08-19T13:28:42;48.00;29.90
2647;DHT22;1333;50.958;6.770;2022-08-19T13:31:28;48.10;29.70
2647;DHT22;1333;50.958;6.770;2022-08-19T13:34:35;47.40;30.00
2647;DHT22;1333;50.958;6.770;2022-08-19T13:37:03;47.10;31.00
2647;DHT22;1333;50.958;6.770;2022-08-19T13:39:30;47.00;30.20
2647;DHT22;1333;50.958;6.770;2022-08-19T13:41:57;47.00;30.70
2647;DHT22;1333;50.958;6.770;2022-08-19T13:44:23;47.20;31.40
2647;DHT22;1333;50.958;6.770;2022-08-19T13:46:49;46.90;31.60
2647;DHT22;1333;50.958;6.770;2022-08-19T13:49:18;46.70;32.00
2647;DHT22;1333;50.958;6.770;2022-08-19T13:51:45;46.60;32.30
2647;DHT22;1333;50.958;6.770;2022-08-19T13:54:12;46.40;31.30
2647;DHT22;1333;50.958;6.770;2022-08-19T13:56:42;45.30;30.70
2647;DHT22;1333;50.958;6.770;2022-08-19T13:59:09;44.40;32.30
2647;DHT22;1333;50.958;6.770;2022-08-19T14:01:34;43.80;32.50
2647;DHT22;1333;50.958;6.770;2022-08-19T14:04:00;43.70;33.30
2647;DHT22;1333;50.958;6.770;2022-08-19T14:06:26;43.20;33.00
2647;DHT22;1333;50.958;6.770;2022-08-19T14:08:52;42.70;34.70
2647;DHT22;1333;50.958;6.770;2022-08-19T14:11:18;42.40;33.40
2647;DHT22;1333;50.958;6.770;2022-08-19T14:13:44;41.70;35.20
2647;DHT22;1333;50.958;6.770;2022-08-19T14:16:10;41.40;35.90
2647;DHT22;1333;50.958;6.770;2022-08-19T14:18:36;41.30;35.60
2647;DHT22;1333;50.958;6.770;2022-08-19T14:21:03;41.00;35.20
2647;DHT22;1333;50.958;6.770;2022-08-19T14:23:30;40.80;34.30
2647;DHT22;1333;50.958;6.770;2022-08-19T14:26:10;40.40;35.20
2647;DHT22;1333;50.958;6.770;2022-08-19T14:28:37;39.80;36.30
2647;DHT22;1333;50.958;6.770;2022-08-19T14:31:06;39.00;36.10
2647;DHT22;1333;50.958;6.770;2022-08-19T14:33:32;38.20;37.70
2647;DHT22;1333;50.958;6.770;2022-08-19T14:35:58;37.30;38.60
2647;DHT22;1333;50.958;6.770;2022-08-19T14:38:25;36.50;38.60
2647;DHT22;1333;50.958;6.770;2022-08-19T14:40:50;35.50;39.50
2647;DHT22;1333;50.958;6.770;2022-08-19T14:43:17;34.80;40.10
2647;DHT22;1333;50.958;6.770;2022-08-19T14:45:43;34.50;42.20
2647;DHT22;1333;50.958;6.770;2022-08-19T14:48:09;34.00;41.10
2647;DHT22;1333;50.958;6.770;2022-08-19T14:50:35;33.50;42.80
2647;DHT22;1333;50.958;6.770;2022-08-19T14:53:07;33.10;42.40
2647;DHT22;1333;50.958;6.770;2022-08-19T14:55:34;32.50;45.00
2647;DHT22;1333;50.958;6.770;2022-08-19T14:58:00;32.20;45.00
2647;DHT22;1333;50.958;6.770;2022-08-19T15:00:27;32.10;45.60
2647;DHT22;1333;50.958;6.770;2022-08-19T15:02:52;32.00;46.00
2647;DHT22;1333;50.958;6.770;2022-08-19T15:05:20;31.70;44.70
2647;DHT22;1333;50.958;6.770;2022-08-19T15:07:46;31.40;46.40
2647;DHT22;1333;50.958;6.770;2022-08-19T15:10:13;31.20;47.60
2647;DHT22;1333;50.958;6.770;2022-08-19T15:12:40;31.00;47.10
2647;DHT22;1333;50.958;6.770;2022-08-19T15:15:07;30.80;47.60
2647;DHT22;1333;50.958;6.770;2022-08-19T15:17:34;30.60;48.40
2647;DHT22;1333;50.958;6.770;2022-08-19T15:20:03;30.40;48.70
2647;DHT22;1333;50.958;6.770;2022-08-19T15:22:29;30.40;49.90
2647;DHT22;1333;50.958;6.770;2022-08-19T15:24:54;30.10;50.60
2647;DHT22;1333;50.958;6.770;2022-08-19T15:27:21;30.00;50.60
2647;DHT22;1333;50.958;6.770;2022-08-19T15:29:46;30.00;51.80
2647;DHT22;1333;50.958;6.770;2022-08-19T15:32:12;29.90;52.00
2647;DHT22;1333;50.958;6.770;2022-08-19T15:34:37;29.80;52.80
2647;DHT22;1333;50.958;6.770;2022-08-19T15:37:03;29.80;53.20
2647;DHT22;1333;50.958;6.770;2022-08-19T15:39:30;29.80;53.30
2647;DHT22;1333;50.958;6.770;2022-08-19T15:41:56;29.80;53.70
2647;DHT22;1333;50.958;6.770;2022-08-19T15:44:21;29.70;53.90
2647;DHT22;1333;50.958;6.770;2022-08-19T15:46:48;29.50;54.20
2647;DHT22;1333;50.958;6.770;2022-08-19T15:49:16;29.30;55.60
2647;DHT22;1333;50.958;6.770;2022-08-19T15:51:46;29.30;57.10
2647;DHT22;1333;50.958;6.770;2022-08-19T15:54:18;29.30;56.70
2647;DHT22;1333;50.958;6.770;2022-08-19T15:56:47;29.50;56.40
2647;DHT22;1333;50.958;6.770;2022-08-19T15:59:32;29.70;55.50
2647;DHT22;1333;50.958;6.770;2022-08-19T16:02:18;29.90;55.20
2647;DHT22;1333;50.958;6.770;2022-08-19T16:05:05;30.00;56.30
2647;DHT22;1333;50.958;6.770;2022-08-19T16:07:49;30.10;55.40
2647;DHT22;1333;50.958;6.770;2022-08-19T16:10:15;30.20;54.70
2647;DHT22;1333;50.958;6.770;2022-08-19T16:12:41;30.30;54.70
2647;DHT22;1333;50.958;6.770;2022-08-19T16:15:08;30.10;54.90
2647;DHT22;1333;50.958;6.770;2022-08-19T16:17:34;30.10;55.10
2647;DHT22;1333;50.958;6.770;2022-08-19T16:20:01;29.80;56.50